Time;durP1;ratioP1;P1;durP2;ratioP2;P2;SDS_P1;SDS_P2;PMS_P1;PMS_P2;Temp;Humidity;BMP_temperature;BMP_pressure;BME280_temperature;BME280_humidity;BME280_pressure;Samples;Min_cycle;Max_cycle;Signal;HPM_P1;HPM_P2
2023/01/11 00:01:05;;;;;;;8.07;5.60;;;;;;;;;;5105206;28;20172;-81
2023/01/11 00:03:30;;;;;;;11.33;6.90;;;;;;;;;;5095171;28;20164;-81
2023/01/11 00:05:56;;;;;;;9.97;5.40;;;;;;;;;;5102162;28;20204;-81
2023/01/11 00:08:23;;;;;;;10.57;6.10;;;;;;;;;;5114814;28;20613;-81
2023/01/11 00:10:48;;;;;;;11.43;6.60;;;;;;;;;;5109546;28;20255;-80
2023/01/11 00:13:13;;;;;;;13.07;6.00;;;;;;;;;;5097842;28;20221;-80
2023/01/11 00:15:39;;;;;;;11.43;6.10;;;;;;;;;;5098713;28;20192;-80
2023/01/11 00:18:04;;;;;;;7.83;6.13;;;;;;;;;;5089826;28;20170;-80
2023/01/11 00:20:30;;;;;;;8.10;5.37;;;;;;;;;;5078438;28;20180;-80
2023/01/11 00:22:55;;;;;;;14.73;6.60;;;;;;;;;;5089086;28;20172;-80
2023/01/11 00:25:20;;;;;;;7.47;5.43;;;;;;;;;;5119371;28;20548;-80
2023/01/11 00:27:48;;;;;;;11.67;5.90;;;;;;;;;;5107677;28;20192;-79
2023/01/11 00:30:14;;;;;;;10.50;6.80;;;;;;;;;;5079809;28;20181;-80
2023/01/11 00:32:39;;;;;;;9.90;6.07;;;;;;;;;;5081232;28;20629;-82
2023/01/11 00:35:04;;;;;;;15.23;7.77;;;;;;;;;;5077540;28;20622;-82
2023/01/11 00:37:30;;;;;;;10.77;6.50;;;;;;;;;;5080494;28;20646;-82
2023/01/11 00:39:55;;;;;;;10.40;5.70;;;;;;;;;;5080688;28;20591;-81
2023/01/11 00:47:59;;;;;;;9.67;5.30;;;;;;;;;;5080359;28;20211;-81
2023/01/11 00:50:25;;;;;;;11.23;6.00;;;;;;;;;;5077474;28;20164;-82
2023/01/11 00:52:50;;;;;;;12.83;6.27;;;;;;;;;;5076769;28;20597;-82
2023/01/11 00:55:15;;;;;;;9.80;6.47;;;;;;;;;;5075752;28;20292;-82
2023/01/11 00:57:40;;;;;;;11.33;5.97;;;;;;;;;;5096991;28;20229;-81
2023/01/11 01:00:06;;;;;;;9.80;6.47;;;;;;;;;;5114558;28;20566;-81
2023/01/11 01:02:32;;;;;;;7.97;6.20;;;;;;;;;;5096845;28;20191;-81
2023/01/11 01:04:57;;;;;;;9.40;6.35;;;;;;;;;;5077576;28;20216;-81
2023/01/11 01:07:23;;;;;;;9.52;6.35;;;;;;;;;;5086099;28;20187;-82
2023/01/11 01:09:48;;;;;;;8.75;6.05;;;;;;;;;;5108965;28;20187;-82
2023/01/11 01:14:24;;;;;;;10.33;6.33;;;;;;;;;;5121664;28;20247;-81
2023/01/11 01:14:58;;;;;;;14.07;6.33;;;;;;;;;;5120706;28;20199;-81
2023/01/11 01:17:23;;;;;;;8.95;5.68;;;;;;;;;;5121023;28;20246;-82
2023/01/11 01:19:49;;;;;;;8.73;6.10;;;;;;;;;;5089514;28;20181;-81
2023/01/11 01:22:14;;;;;;;10.43;6.70;;;;;;;;;;5080507;28;20204;-81
2023/01/11 01:24:39;;;;;;;8.55;6.18;;;;;;;;;;5080812;28;20204;-80
2023/01/11 01:27:04;;;;;;;7.67;6.13;;;;;;;;;;5075367;28;20188;-81
2023/01/11 01:29:29;;;;;;;8.77;6.33;;;;;;;;;;5075352;28;20173;-82
2023/01/11 01:31:55;;;;;;;9.73;5.77;;;;;;;;;;5078051;28;20684;-81
2023/01/11 01:34:20;;;;;;;10.40;6.57;;;;;;;;;;5077352;28;20188;-82
2023/01/11 01:36:45;;;;;;;8.23;6.03;;;;;;;;;;5100364;28;20203;-80
2023/01/11 01:39:11;;;;;;;9.82;7.40;;;;;;;;;;5107448;28;20610;-82
2023/01/11 01:41:37;;;;;;;6.43;5.63;;;;;;;;;;5100117;28;20371;-82
2023/01/11 01:44:22;;;;;;;7.22;6.03;;;;;;;;;;5105383;28;20843;-82
2023/01/11 01:46:47;;;;;;;9.10;6.25;;;;;;;;;;5063667;28;20231;-82
2023/01/11 01:49:14;;;;;;;8.07;6.07;;;;;;;;;;5089748;28;20223;-82
2023/01/11 01:51:46;;;;;;;10.13;5.82;;;;;;;;;;5103241;28;20168;-83
2023/01/11 01:54:14;;;;;;;8.90;6.10;;;;;;;;;;5107456;28;20176;-82
2023/01/11 01:56:51;;;;;;;7.25;6.45;;;;;;;;;;5100510;28;20223;-82
2023/01/11 01:59:17;;;;;;;9.27;6.33;;;;;;;;;;5113293;28;20225;-82
2023/01/11 02:01:45;;;;;;;8.18;6.32;;;;;;;;;;5116895;28;20632;-82
2023/01/11 02:04:31;;;;;;;10.00;6.93;;;;;;;;;;5114736;28;20220;-82
2023/01/11 02:06:59;;;;;;;7.00;6.30;;;;;;;;;;5074213;28;20220;-82
2023/01/11 02:09:28;;;;;;;7.07;5.88;;;;;;;;;;5077000;28;20180;-82
2023/01/11 02:11:54;;;;;;;14.07;7.57;;;;;;;;;;5115674;28;20267;-82
2023/01/11 02:14:20;;;;;;;7.33;6.20;;;;;;;;;;5115740;28;20250;-82
2023/01/11 02:16:46;;;;;;;8.20;6.10;;;;;;;;;;5123291;28;20222;-82
2023/01/11 02:19:16;;;;;;;6.68;5.78;;;;;;;;;;5121083;28;20160;-83
2023/01/11 02:21:45;;;;;;;10.45;6.45;;;;;;;;;;5119048;28;20175;-82
2023/01/11 02:24:29;;;;;;;9.40;5.80;;;;;;;;;;5117094;28;20220;-83
2023/01/11 02:26:58;;;;;;;9.82;6.18;;;;;;;;;;5099615;28;20205;-81
2023/01/11 02:29:37;;;;;;;8.90;5.45;;;;;;;;;;5075585;28;20180;-82
2023/01/11 02:32:06;;;;;;;9.35;5.90;;;;;;;;;;5074978;28;20173;-81
2023/01/11 02:34:31;;;;;;;9.68;5.18;;;;;;;;;;5076992;28;20177;-81
2023/01/11 02:36:59;;;;;;;5.70;5.07;;;;;;;;;;5076981;28;20677;-82
2023/01/11 02:39:42;;;;;;;7.60;5.70;;;;;;;;;;5075326;28;20177;-81
2023/01/11 02:45:03;;;;;;;8.25;5.07;;;;;;;;;;5076671;28;20212;-82
2023/01/11 02:47:38;;;;;;;5.35;4.45;;;;;;;;;;5094473;28;20260;-82
2023/01/11 02:50:09;;;;;;;4.82;4.32;;;;;;;;;;5095490;28;20196;-81
2023/01/11 02:52:41;;;;;;;6.93;4.85;;;;;;;;;;5097868;28;20250;-81
2023/01/11 02:55:08;;;;;;;5.75;5.18;;;;;;;;;;5086297;28;20598;-82
2023/01/11 02:57:34;;;;;;;7.85;4.55;;;;;;;;;;5109014;28;20244;-82
2023/01/11 03:00:00;;;;;;;6.72;4.97;;;;;;;;;;5112800;28;20195;-82
2023/01/11 03:02:26;;;;;;;8.70;5.07;;;;;;;;;;5096804;28;20172;-81
2023/01/11 03:04:51;;;;;;;5.03;4.25;;;;;;;;;;5097960;28;20242;-82
2023/01/11 03:07:35;;;;;;;5.78;3.88;;;;;;;;;;5098313;28;20643;-81
2023/01/11 03:10:00;;;;;;;6.68;4.35;;;;;;;;;;5103031;28;20179;-82
2023/01/11 03:15:28;;;;;;;6.63;4.13;;;;;;;;;;5080673;28;20196;-83
2023/01/11 03:17:59;;;;;;;8.23;4.35;;;;;;;;;;5079909;28;20339;-82
2023/01/11 03:20:27;;;;;;;5.57;4.00;;;;;;;;;;5078593;28;20259;-83
2023/01/11 03:23:02;;;;;;;6.82;4.03;;;;;;;;;;5076975;28;20173;-82
2023/01/11 03:25:27;;;;;;;5.97;4.28;;;;;;;;;;5076555;28;20244;-82
2023/01/11 03:27:56;;;;;;;4.43;3.85;;;;;;;;;;5090357;28;20177;-82
2023/01/11 03:30:37;;;;;;;4.90;3.80;;;;;;;;;;5103905;28;20232;-82
2023/01/11 03:33:05;;;;;;;7.53;4.85;;;;;;;;;;5099737;28;20235;-82
2023/01/11 03:35:40;;;;;;;5.80;3.72;;;;;;;;;;5098372;28;20247;-82
2023/01/11 03:38:16;;;;;;;4.93;3.50;;;;;;;;;;5098078;28;20175;-83
2023/01/11 03:40:45;;;;;;;6.00;4.25;;;;;;;;;;5099140;28;20160;-83
2023/01/11 03:43:12;;;;;;;6.28;4.05;;;;;;;;;;5099083;28;20528;-83
2023/01/11 03:45:46;;;;;;;6.57;4.13;;;;;;;;;;5098446;28;20672;-83
2023/01/11 03:48:13;;;;;;;9.85;5.25;;;;;;;;;;5087973;28;20184;-83
2023/01/11 03:50:40;;;;;;;6.57;4.82;;;;;;;;;;5097040;28;20200;-84
2023/01/11 03:53:05;;;;;;;6.35;4.68;;;;;;;;;;5094843;28;20267;-83
2023/01/11 03:55:33;;;;;;;7.70;5.35;;;;;;;;;;5109710;28;20235;-83
2023/01/11 03:57:59;;;;;;;6.82;4.93;;;;;;;;;;5115392;28;20186;-81
2023/01/11 04:00:25;;;;;;;5.53;4.25;;;;;;;;;;5115692;28;20167;-84
2023/01/11 04:02:52;;;;;;;10.52;4.97;;;;;;;;;;5117029;28;20176;-82
2023/01/11 04:05:18;;;;;;;9.23;5.70;;;;;;;;;;5116100;28;20235;-82
2023/01/11 04:07:43;;;;;;;11.25;5.38;;;;;;;;;;5117650;27;20668;-84
2023/01/11 04:10:08;;;;;;;10.75;5.35;;;;;;;;;;5082132;28;20562;-82
2023/01/11 04:12:34;;;;;;;6.10;4.57;;;;;;;;;;5075077;28;20209;-83
2023/01/11 04:15:01;;;;;;;8.32;4.88;;;;;;;;;;5077090;28;20192;-83
2023/01/11 04:17:27;;;;;;;11.13;5.45;;;;;;;;;;5077680;28;20226;-84
2023/01/11 04:19:52;;;;;;;11.55;5.15;;;;;;;;;;5075943;28;20157;-83
2023/01/11 04:22:17;;;;;;;10.02;5.50;;;;;;;;;;5076551;28;20161;-81
2023/01/11 04:24:42;;;;;;;11.13;5.32;;;;;;;;;;5074406;28;20683;-83
2023/01/11 04:27:07;;;;;;;6.32;4.72;;;;;;;;;;5075929;28;20263;-83
2023/01/11 04:29:33;;;;;;;8.00;4.43;;;;;;;;;;5074872;28;20180;-83
2023/01/11 04:31:58;;;;;;;10.60;4.55;;;;;;;;;;5075806;28;20173;-83
2023/01/11 04:34:23;;;;;;;15.30;5.00;;;;;;;;;;5076534;28;20226;-83
2023/01/11 04:36:48;;;;;;;9.45;3.63;;;;;;;;;;5075259;28;20634;-82
2023/01/11 04:39:13;;;;;;;10.80;3.55;;;;;;;;;;5075219;28;20165;-82
2023/01/11 04:44:23;;;;;;;7.95;3.65;;;;;;;;;;5095527;28;20213;-83
2023/01/11 04:46:48;;;;;;;14.18;3.58;;;;;;;;;;5095091;28;20223;-84
2023/01/11 04:49:14;;;;;;;14.80;3.72;;;;;;;;;;5099553;28;20179;-83
2023/01/11 04:51:39;;;;;;;12.32;3.00;;;;;;;;;;5091273;28;20195;-83
2023/01/11 04:54:04;;;;;;;11.88;3.30;;;;;;;;;;5104419;28;20188;-81
2023/01/11 04:56:30;;;;;;;15.95;4.60;;;;;;;;;;5115690;28;20696;-83
2023/01/11 04:58:55;;;;;;;13.70;3.25;;;;;;;;;;5116837;27;20268;-82
2023/01/11 05:01:20;;;;;;;16.63;4.30;;;;;;;;;;5077481;28;20226;-82
2023/01/11 05:03:45;;;;;;;11.75;3.38;;;;;;;;;;5075857;28;20173;-84
2023/01/11 05:06:11;;;;;;;10.93;2.33;;;;;;;;;;5076919;28;20193;-81
2023/01/11 05:08:37;;;;;;;22.55;4.70;;;;;;;;;;5086535;28;20793;-83
2023/01/11 05:11:06;;;;;;;16.33;2.95;;;;;;;;;;5089361;28;20183;-81
2023/01/11 05:13:41;;;;;;;18.23;4.07;;;;;;;;;;5079710;28;20193;-81
2023/01/11 05:16:09;;;;;;;11.32;2.90;;;;;;;;;;5076986;28;20196;-81
2023/01/11 05:18:34;;;;;;;14.45;2.90;;;;;;;;;;5075917;28;20175;-81
2023/01/11 05:21:00;;;;;;;15.05;3.05;;;;;;;;;;5074981;28;20232;-82
2023/01/11 05:23:25;;;;;;;15.85;3.08;;;;;;;;;;5073949;28;20169;-82
2023/01/11 05:25:50;;;;;;;16.13;3.80;;;;;;;;;;5074630;28;20200;-81
2023/01/11 05:28:15;;;;;;;12.40;3.20;;;;;;;;;;5075956;28;20215;-82
2023/01/11 05:30:41;;;;;;;16.53;3.30;;;;;;;;;;5075737;28;20553;-82
2023/01/11 05:33:06;;;;;;;16.85;3.35;;;;;;;;;;5074521;28;20184;-81
2023/01/11 05:35:31;;;;;;;17.30;3.83;;;;;;;;;;5075983;28;20216;-81
2023/01/11 05:37:56;;;;;;;24.52;4.38;;;;;;;;;;5075270;28;20176;-81
2023/01/11 05:40:21;;;;;;;13.90;3.50;;;;;;;;;;5075455;28;20161;-80
2023/01/11 05:42:46;;;;;;;18.77;3.00;;;;;;;;;;5074970;28;20542;-81
2023/01/11 05:47:55;;;;;;;10.02;2.55;;;;;;;;;;5072611;28;20171;-82
2023/01/11 05:50:21;;;;;;;16.67;3.87;;;;;;;;;;5084729;28;20255;-81
2023/01/11 05:52:46;;;;;;;11.40;2.70;;;;;;;;;;5106175;28;20498;-81
2023/01/11 05:55:11;;;;;;;11.33;2.87;;;;;;;;;;5113769;28;20214;-82
2023/01/11 05:57:39;;;;;;;15.55;3.75;;;;;;;;;;5113898;28;20171;-83
2023/01/11 06:00:05;;;;;;;14.70;2.70;;;;;;;;;;5115284;28;20229;-82
2023/01/11 06:02:30;;;;;;;13.00;2.40;;;;;;;;;;5115511;28;20172;-82
2023/01/11 06:04:55;;;;;;;10.73;2.60;;;;;;;;;;5107089;28;20286;-82
2023/01/11 06:07:23;;;;;;;10.00;2.40;;;;;;;;;;5090782;28;20183;-82
2023/01/11 06:09:48;;;;;;;15.83;2.83;;;;;;;;;;5102178;28;20168;-80
2023/01/11 06:12:14;;;;;;;17.17;3.53;;;;;;;;;;5108697;28;20164;-83
2023/01/11 06:14:39;;;;;;;17.80;2.80;;;;;;;;;;5093839;28;20656;-80
2023/01/11 06:17:04;;;;;;;21.77;2.10;;;;;;;;;;5078533;28;20207;-83
2023/01/11 06:19:29;;;;;;;11.90;2.17;;;;;;;;;;5075548;28;20181;-83
2023/01/11 06:21:54;;;;;;;17.60;2.50;;;;;;;;;;5074865;28;20200;-82
2023/01/11 06:24:20;;;;;;;12.87;3.07;;;;;;;;;;5076780;28;20655;-82
2023/01/11 06:26:45;;;;;;;11.43;1.90;;;;;;;;;;5092469;28;20204;-83
2023/01/11 06:29:10;;;;;;;8.43;2.00;;;;;;;;;;5098986;28;20176;-82
2023/01/11 06:31:35;;;;;;;13.37;2.30;;;;;;;;;;5100240;28;20237;-82
2023/01/11 06:34:00;;;;;;;12.57;2.93;;;;;;;;;;5099163;28;20649;-82
2023/01/11 06:36:26;;;;;;;10.73;2.10;;;;;;;;;;5098798;28;20270;-82
2023/01/11 06:38:51;;;;;;;12.13;3.07;;;;;;;;;;5099305;28;20168;-82
2023/01/11 06:41:16;;;;;;;15.20;2.60;;;;;;;;;;5090319;28;20173;-82
2023/01/11 06:43:41;;;;;;;12.17;2.40;;;;;;;;;;5079497;28;20176;-81
2023/01/11 06:46:14;;;;;;;11.37;2.10;;;;;;;;;;5079306;28;20217;-81
2023/01/11 06:48:39;;;;;;;13.53;2.20;;;;;;;;;;5086542;28;20219;-82
2023/01/11 06:51:04;;;;;;;9.47;2.07;;;;;;;;;;5088993;28;20661;-83
2023/01/11 06:53:30;;;;;;;13.33;2.80;;;;;;;;;;5119136;28;20838;-82
2023/01/11 06:55:56;;;;;;;9.00;3.53;;;;;;;;;;5119488;28;20226;-82
2023/01/11 06:58:22;;;;;;;12.90;2.40;;;;;;;;;;5113765;28;20187;-82
2023/01/11 07:00:47;;;;;;;10.97;2.80;;;;;;;;;;5083552;28;20176;-83
2023/01/11 07:03:13;;;;;;;8.23;2.20;;;;;;;;;;5098491;28;20591;-82
2023/01/11 07:05:38;;;;;;;8.87;1.97;;;;;;;;;;5097637;28;20283;-80
2023/01/11 07:08:03;;;;;;;8.23;1.93;;;;;;;;;;5104890;28;20180;-82
2023/01/11 07:10:29;;;;;;;12.77;2.63;;;;;;;;;;5110718;28;20171;-81
2023/01/11 07:12:54;;;;;;;16.83;2.70;;;;;;;;;;5119870;28;20502;-81
2023/01/11 07:15:19;;;;;;;10.47;2.10;;;;;;;;;;5112122;28;20230;-81
2023/01/11 07:17:46;;;;;;;14.47;2.40;;;;;;;;;;5077547;28;20180;-81
2023/01/11 07:20:12;;;;;;;18.63;3.57;;;;;;;;;;5077826;28;20223;-81
2023/01/11 07:22:37;;;;;;;7.27;2.53;;;;;;;;;;5077768;28;20229;-82
2023/01/11 07:25:03;;;;;;;10.63;2.57;;;;;;;;;;5076298;28;20322;-82
2023/01/11 07:27:28;;;;;;;12.13;3.13;;;;;;;;;;5075547;28;20169;-81
2023/01/11 07:29:53;;;;;;;11.23;2.40;;;;;;;;;;5075185;28;20169;-81
2023/01/11 07:32:19;;;;;;;11.80;2.43;;;;;;;;;;5077453;28;20679;-81
2023/01/11 07:34:44;;;;;;;13.70;2.70;;;;;;;;;;5077621;28;20162;-81
2023/01/11 07:37:09;;;;;;;10.20;2.27;;;;;;;;;;5075958;28;20283;-81
2023/01/11 07:39:35;;;;;;;11.90;3.67;;;;;;;;;;5079555;28;20161;-81
2023/01/11 07:44:44;;;;;;;12.27;3.00;;;;;;;;;;5089832;28;20191;-81
2023/01/11 07:47:09;;;;;;;12.80;2.93;;;;;;;;;;5085933;28;20670;-78
2023/01/11 07:49:34;;;;;;;16.43;3.17;;;;;;;;;;5100688;28;20266;-80
2023/01/11 07:52:00;;;;;;;10.30;2.47;;;;;;;;;;5100353;28;20182;-80
2023/01/11 07:54:25;;;;;;;14.23;4.37;;;;;;;;;;5107689;28;20194;-80
2023/01/11 07:56:50;;;;;;;14.67;2.30;;;;;;;;;;5097506;28;20632;-80
2023/01/11 07:59:16;;;;;;;8.90;2.07;;;;;;;;;;5097744;28;20183;-80
2023/01/11 08:01:41;;;;;;;17.50;3.53;;;;;;;;;;5094645;28;20184;-78
2023/01/11 08:04:10;;;;;;;17.90;4.17;;;;;;;;;;5083664;28;20172;-79
2023/01/11 08:06:35;;;;;;;17.60;3.17;;;;;;;;;;5096732;28;20619;-77
2023/01/11 08:09:01;;;;;;;14.10;3.53;;;;;;;;;;5099183;28;20202;-78
2023/01/11 08:16:54;;;;;;;11.67;4.23;;;;;;;;;;5081650;28;20207;-79
2023/01/11 08:19:19;;;;;;;15.67;2.33;;;;;;;;;;5076047;28;20201;-80
2023/01/11 08:21:44;;;;;;;17.77;3.53;;;;;;;;;;5079810;28;20199;-79
2023/01/11 08:24:09;;;;;;;13.87;2.43;;;;;;;;;;5081451;28;20172;-79
2023/01/11 08:26:35;;;;;;;16.77;3.70;;;;;;;;;;5081364;28;20536;-78
2023/01/11 08:29:00;;;;;;;15.13;2.93;;;;;;;;;;5085926;28;20677;-79
2023/01/11 08:31:25;;;;;;;17.47;3.43;;;;;;;;;;5100285;28;20246;-77
2023/01/11 08:33:50;;;;;;;16.00;3.63;;;;;;;;;;5105890;28;20187;-77
2023/01/11 08:36:15;;;;;;;8.97;2.80;;;;;;;;;;5100994;28;20227;-77
2023/01/11 08:38:41;;;;;;;11.47;2.93;;;;;;;;;;5110917;28;20186;-78
2023/01/11 08:41:09;;;;;;;14.40;2.83;;;;;;;;;;5107027;28;20560;-77
2023/01/11 08:43:35;;;;;;;12.30;4.27;;;;;;;;;;5110153;28;20171;-81
2023/01/11 08:46:00;;;;;;;16.23;2.90;;;;;;;;;;5097957;28;20205;-78
2023/01/11 08:48:25;;;;;;;17.43;3.57;;;;;;;;;;5094549;28;20594;-78
2023/01/11 08:50:50;;;;;;;14.10;3.30;;;;;;;;;;5090559;28;20185;-76
2023/01/11 08:53:16;;;;;;;14.23;2.27;;;;;;;;;;5096682;28;20215;-79
2023/01/11 08:55:43;;;;;;;18.07;3.40;;;;;;;;;;5102675;28;20208;-78
2023/01/11 08:58:08;;;;;;;12.97;2.43;;;;;;;;;;5106112;28;20175;-78
2023/01/11 09:00:33;;;;;;;12.17;2.83;;;;;;;;;;5113988;28;20280;-79
2023/01/11 09:02:59;;;;;;;11.70;2.97;;;;;;;;;;5109546;28;20180;-78
2023/01/11 09:05:24;;;;;;;13.67;3.93;;;;;;;;;;5114586;28;20214;-79
2023/01/11 09:07:49;;;;;;;12.63;3.33;;;;;;;;;;5076546;28;20181;-78
2023/01/11 09:10:15;;;;;;;16.37;3.03;;;;;;;;;;5098897;28;20278;-78
2023/01/11 09:12:40;;;;;;;12.50;3.17;;;;;;;;;;5108360;28;20182;-78
2023/01/11 09:15:05;;;;;;;21.70;3.17;;;;;;;;;;5097662;28;20205;-78
2023/01/11 09:17:32;;;;;;;12.93;2.93;;;;;;;;;;5106363;28;20197;-78
2023/01/11 09:19:57;;;;;;;14.57;2.97;;;;;;;;;;5099988;28;20180;-80
2023/01/11 09:22:22;;;;;;;14.07;2.50;;;;;;;;;;5096926;28;20222;-77
2023/01/11 09:24:47;;;;;;;8.60;3.13;;;;;;;;;;5109471;28;20179;-80
2023/01/11 09:27:13;;;;;;;11.00;3.73;;;;;;;;;;5113025;28;20194;-80
2023/01/11 09:29:38;;;;;;;14.13;3.23;;;;;;;;;;5115948;28;20236;-79
2023/01/11 09:32:04;;;;;;;12.87;3.20;;;;;;;;;;5101129;28;20221;-80
2023/01/11 09:34:29;;;;;;;17.83;3.03;;;;;;;;;;5079220;28;20184;-79
2023/01/11 09:36:58;;;;;;;9.87;2.87;;;;;;;;;;5099315;28;20273;-79
2023/01/11 09:39:26;;;;;;;16.80;3.80;;;;;;;;;;5102067;28;21376;-79
2023/01/11 09:42:10;;;;;;;13.53;3.10;;;;;;;;;;5098989;28;20176;-79
2023/01/11 09:44:40;;;;;;;9.33;2.50;;;;;;;;;;5090419;28;20183;-79
2023/01/11 09:47:12;;;;;;;10.20;2.73;;;;;;;;;;5086208;28;20176;-78
2023/01/11 09:49:40;;;;;;;13.17;2.70;;;;;;;;;;5102849;28;20202;-79
2023/01/11 09:52:10;;;;;;;18.97;3.60;;;;;;;;;;5084243;28;20582;-82
2023/01/11 09:54:35;;;;;;;21.10;3.23;;;;;;;;;;5090493;28;20164;-81
2023/01/11 09:57:27;;;;;;;12.40;3.20;;;;;;;;;;5083840;28;20196;-81
2023/01/11 10:00:00;;;;;;;8.87;2.50;;;;;;;;;;5087502;28;20275;-80
2023/01/11 10:02:46;;;;;;;10.90;2.63;;;;;;;;;;5101611;28;20190;-80
2023/01/11 10:05:17;;;;;;;14.00;2.70;;;;;;;;;;5063616;28;20231;-81
2023/01/11 10:07:52;;;;;;;14.67;3.33;;;;;;;;;;5087277;28;20206;-80
2023/01/11 10:10:20;;;;;;;12.00;2.67;;;;;;;;;;5105701;28;20588;-80
2023/01/11 10:12:46;;;;;;;10.00;2.93;;;;;;;;;;5083169;28;20177;-80
2023/01/11 10:15:30;;;;;;;16.47;2.70;;;;;;;;;;5093827;28;20205;-80
2023/01/11 10:18:18;;;;;;;17.23;3.00;;;;;;;;;;5087974;28;20466;-79
2023/01/11 10:20:49;;;;;;;8.97;2.10;;;;;;;;;;5089318;28;20179;-80
2023/01/11 10:23:27;;;;;;;10.57;2.73;;;;;;;;;;5086350;28;20192;-80
2023/01/11 10:25:55;;;;;;;13.75;3.95;;;;;;;;;;5094317;28;20203;-81
2023/01/11 10:28:31;;;;;;;14.37;3.40;;;;;;;;;;5104483;28;20175;-80
2023/01/11 10:33:41;;;;;;;12.23;2.43;;;;;;;;;;5103800;28;20240;-80
2023/01/11 10:41:47;;;;;;;19.47;2.80;;;;;;;;;;5096274;28;20191;-82
2023/01/11 10:44:22;;;;;;;10.60;2.83;;;;;;;;;;5105571;28;20549;-79
2023/01/11 10:46:49;;;;;;;16.53;3.90;;;;;;;;;;5095418;28;20212;-79
2023/01/11 10:49:21;;;;;;;21.00;2.97;;;;;;;;;;5106258;28;20680;-79
2023/01/11 10:51:48;;;;;;;17.23;2.67;;;;;;;;;;5094518;28;20188;-79
2023/01/11 10:54:18;;;;;;;23.43;4.83;;;;;;;;;;5109357;28;20207;-79
2023/01/11 10:56:50;;;;;;;7.73;2.50;;;;;;;;;;5109058;22;20662;-73
2023/01/11 10:59:30;;;;;;;9.38;2.35;;;;;;;;;;5097253;28;20172;-73
2023/01/11 11:02:10;;;;;;;15.70;2.95;;;;;;;;;;5097338;28;20602;-73
2023/01/11 11:04:51;;;;;;;11.68;3.40;;;;;;;;;;5093896;28;20222;-73
2023/01/11 11:07:25;;;;;;;15.63;2.25;;;;;;;;;;5094288;28;20217;-73
2023/01/11 11:10:13;;;;;;;12.82;3.13;;;;;;;;;;5078037;28;20208;-73
2023/01/11 11:12:45;;;;;;;16.75;3.00;;;;;;;;;;5044555;28;20189;-74
2023/01/11 11:15:18;;;;;;;7.22;2.08;;;;;;;;;;5075883;28;20219;-74
2023/01/11 11:17:50;;;;;;;10.63;2.65;;;;;;;;;;5085918;28;20188;-74
2023/01/11 11:20:15;;;;;;;10.25;2.75;;;;;;;;;;5094340;28;20176;-74
2023/01/11 11:22:41;;;;;;;13.00;2.88;;;;;;;;;;5070122;28;20199;-74
2023/01/11 11:25:13;;;;;;;11.60;2.90;;;;;;;;;;5094228;28;20172;-74
2023/01/11 11:27:41;;;;;;;14.82;2.78;;;;;;;;;;5096814;28;20176;-75
2023/01/11 11:30:08;;;;;;;13.52;2.58;;;;;;;;;;5092020;28;20644;-74
2023/01/11 11:32:35;;;;;;;17.35;2.33;;;;;;;;;;5102127;28;20169;-73
2023/01/11 11:35:00;;;;;;;11.93;2.40;;;;;;;;;;5094077;28;20168;-74
2023/01/11 11:37:38;;;;;;;11.23;2.78;;;;;;;;;;5092943;28;20223;-74
2023/01/11 11:40:04;;;;;;;16.08;3.08;;;;;;;;;;5096731;28;20180;-74
2023/01/11 11:42:29;;;;;;;19.15;3.55;;;;;;;;;;5096204;28;20664;-74
2023/01/11 11:45:10;;;;;;;9.75;2.13;;;;;;;;;;5072646;28;20176;-73
2023/01/11 11:47:35;;;;;;;11.43;2.70;;;;;;;;;;5076674;28;20657;-74
2023/01/11 11:50:19;;;;;;;27.95;3.60;;;;;;;;;;5097852;28;20183;-74
2023/01/11 11:52:49;;;;;;;12.83;2.40;;;;;;;;;;5088419;28;20558;-74
2023/01/11 11:55:23;;;;;;;7.97;3.00;;;;;;;;;;5097546;28;20562;-74
2023/01/11 11:57:48;;;;;;;18.02;5.22;;;;;;;;;;5074191;28;20181;-74
2023/01/11 12:00:19;;;;;;;17.35;2.30;;;;;;;;;;5093500;28;20168;-74
2023/01/11 12:02:48;;;;;;;10.53;2.17;;;;;;;;;;5093472;28;20708;-73
2023/01/11 12:05:13;;;;;;;15.65;2.40;;;;;;;;;;5081365;28;20197;-73
2023/01/11 12:07:43;;;;;;;12.68;2.95;;;;;;;;;;5093500;28;20177;-74
2023/01/11 12:10:12;;;;;;;10.82;3.10;;;;;;;;;;5101849;28;20176;-74
2023/01/11 12:12:53;;;;;;;12.90;3.07;;;;;;;;;;5081230;28;20184;-73
2023/01/11 12:15:23;;;;;;;11.43;3.10;;;;;;;;;;5073609;28;20319;-73
2023/01/11 12:17:48;;;;;;;12.73;3.00;;;;;;;;;;5091481;28;20641;-73
2023/01/11 12:20:22;;;;;;;8.95;1.90;;;;;;;;;;5096738;28;20312;-73
2023/01/11 12:23:06;;;;;;;10.32;2.75;;;;;;;;;;5087767;28;20595;-73
2023/01/11 12:25:34;;;;;;;13.27;2.38;;;;;;;;;;5074882;28;20188;-74
2023/01/11 12:28:18;;;;;;;8.38;2.88;;;;;;;;;;5092865;28;20164;-73
2023/01/11 12:30:50;;;;;;;10.10;3.00;;;;;;;;;;5090248;28;20237;-73
2023/01/11 12:33:36;;;;;;;10.97;2.30;;;;;;;;;;5093809;28;20181;-73
2023/01/11 12:36:10;;;;;;;14.97;2.53;;;;;;;;;;5095210;28;20192;-73
2023/01/11 12:38:46;;;;;;;7.37;2.60;;;;;;;;;;5092306;28;20223;-73
2023/01/11 12:41:18;;;;;;;7.73;2.00;;;;;;;;;;5078334;28;20175;-73
2023/01/11 12:44:13;;;;;;;10.17;2.63;;;;;;;;;;5085394;28;20552;-73
2023/01/11 12:46:44;;;;;;;10.73;2.20;;;;;;;;;;5081725;28;20682;-74
2023/01/11 12:49:18;;;;;;;19.97;2.93;;;;;;;;;;5074230;28;20183;-73
2023/01/11 12:51:43;;;;;;;11.60;2.40;;;;;;;;;;5091532;28;20183;-74
2023/01/11 12:54:08;;;;;;;14.13;3.50;;;;;;;;;;5090669;28;20176;-74
2023/01/11 12:56:34;;;;;;;11.87;2.43;;;;;;;;;;5079442;28;20261;-73
2023/01/11 12:59:18;;;;;;;12.45;3.53;;;;;;;;;;5072392;28;20179;-74
2023/01/11 13:01:43;;;;;;;13.27;2.20;;;;;;;;;;5084756;28;20539;-73
2023/01/11 13:04:19;;;;;;;11.45;2.63;;;;;;;;;;5092171;28;20227;-73
2023/01/11 13:06:59;;;;;;;10.32;2.17;;;;;;;;;;5092152;28;20202;-74
2023/01/11 13:09:36;;;;;;;20.30;3.90;;;;;;;;;;5091800;28;20191;-73
2023/01/11 13:12:11;;;;;;;12.95;2.22;;;;;;;;;;5095768;28;20267;-73
2023/01/11 13:14:42;;;;;;;12.37;2.13;;;;;;;;;;5089409;28;20195;-73
2023/01/11 13:17:18;;;;;;;8.90;2.73;;;;;;;;;;5088119;28;20204;-73
2023/01/11 13:20:02;;;;;;;16.20;2.60;;;;;;;;;;5091375;28;20313;-73
2023/01/11 13:22:29;;;;;;;12.77;2.33;;;;;;;;;;5091810;28;20176;-75
2023/01/11 13:24:55;;;;;;;11.27;2.53;;;;;;;;;;5078022;28;20177;-74
2023/01/11 13:27:21;;;;;;;14.67;3.60;;;;;;;;;;5091999;28;20294;-73
2023/01/11 13:29:48;;;;;;;14.47;3.13;;;;;;;;;;5093177;28;20180;-74
2023/01/11 13:32:15;;;;;;;13.83;3.33;;;;;;;;;;5090543;28;20198;-73
2023/01/11 13:34:43;;;;;;;11.63;2.37;;;;;;;;;;5090035;28;20206;-72
2023/01/11 13:37:16;;;;;;;16.05;2.65;;;;;;;;;;5097578;28;20248;-72
2023/01/11 13:39:52;;;;;;;12.27;4.80;;;;;;;;;;5085434;28;20532;-72
2023/01/11 13:42:21;;;;;;;14.83;3.07;;;;;;;;;;5100479;28;20290;-72
2023/01/11 13:44:49;;;;;;;15.23;2.50;;;;;;;;;;5095250;28;20183;-72
2023/01/11 13:47:21;;;;;;;16.00;2.90;;;;;;;;;;5090219;28;20497;-72
2023/01/11 13:50:13;;;;;;;11.80;3.50;;;;;;;;;;5090486;28;20667;-73
2023/01/11 13:52:58;;;;;;;11.33;3.00;;;;;;;;;;5079921;28;20212;-73
2023/01/11 13:55:28;;;;;;;13.73;2.63;;;;;;;;;;5084319;28;20245;-73
2023/01/11 13:58:02;;;;;;;13.67;3.07;;;;;;;;;;5096924;28;20255;-73
2023/01/11 14:00:36;;;;;;;11.03;2.47;;;;;;;;;;5093449;28;20228;-72
2023/01/11 14:03:04;;;;;;;19.43;2.93;;;;;;;;;;5091295;28;20249;-73
2023/01/11 14:05:35;;;;;;;10.63;2.17;;;;;;;;;;5089299;28;20223;-73
2023/01/11 14:08:03;;;;;;;12.83;3.07;;;;;;;;;;5091208;28;20645;-73
2023/01/11 14:10:29;;;;;;;14.27;3.63;;;;;;;;;;5073182;28;20176;-73
2023/01/11 14:13:02;;;;;;;12.37;2.90;;;;;;;;;;5091447;28;20552;-73
2023/01/11 14:15:37;;;;;;;12.93;3.50;;;;;;;;;;5091069;28;20188;-72
2023/01/11 14:18:21;;;;;;;14.70;3.03;;;;;;;;;;5088973;28;20255;-73
2023/01/11 14:20:49;;;;;;;10.97;2.00;;;;;;;;;;5089538;28;20180;-73
2023/01/11 14:23:14;;;;;;;11.43;4.00;;;;;;;;;;5093462;28;20172;-73
2023/01/11 14:25:42;;;;;;;8.00;3.03;;;;;;;;;;5091312;28;20192;-73
2023/01/11 14:28:23;;;;;;;12.80;2.63;;;;;;;;;;5091131;28;20298;-73
2023/01/11 14:31:07;;;;;;;17.50;3.27;;;;;;;;;;5089880;28;20221;-73
2023/01/11 14:33:32;;;;;;;13.63;2.33;;;;;;;;;;5090806;28;20231;-72
2023/01/11 14:35:57;;;;;;;10.87;3.13;;;;;;;;;;5091052;28;20224;-73
2023/01/11 14:38:23;;;;;;;16.40;3.10;;;;;;;;;;5071746;28;20168;-72
2023/01/11 14:40:55;;;;;;;13.50;2.47;;;;;;;;;;5091138;28;20161;-72
2023/01/11 14:43:32;;;;;;;19.60;3.97;;;;;;;;;;5097389;28;20683;-73
2023/01/11 14:46:09;;;;;;;14.63;1.80;;;;;;;;;;5088451;28;20248;-73
2023/01/11 14:48:55;;;;;;;16.37;2.77;;;;;;;;;;5101574;28;20180;-72
2023/01/11 14:51:29;;;;;;;13.10;3.10;;;;;;;;;;5041627;28;20219;-73
2023/01/11 14:54:01;;;;;;;12.80;2.87;;;;;;;;;;5089172;28;20194;-73
2023/01/11 14:56:34;;;;;;;15.30;3.47;;;;;;;;;;5075826;28;20707;-72
2023/01/11 14:59:18;;;;;;;9.10;2.23;;;;;;;;;;5096116;28;20549;-72
2023/01/11 15:02:01;;;;;;;13.97;3.83;;;;;;;;;;5090336;28;20188;-72
2023/01/11 15:04:27;;;;;;;18.13;4.00;;;;;;;;;;5084009;28;20172;-72
2023/01/11 15:06:53;;;;;;;13.63;2.73;;;;;;;;;;5093972;28;20230;-73
2023/01/11 15:09:37;;;;;;;14.23;2.67;;;;;;;;;;5093419;28;20176;-73
2023/01/11 15:12:10;;;;;;;12.37;2.73;;;;;;;;;;5093486;28;20184;-73
2023/01/11 15:14:36;;;;;;;16.70;2.83;;;;;;;;;;5091040;28;20308;-72
2023/01/11 15:19:46;;;;;;;18.27;4.57;;;;;;;;;;5093727;28;20712;-72